Time,TemperatureF,DewpointF,PressureIn,WindDirection,WindDirectionDegrees,WindSpeedMPH,WindSpeedGustMPH,Humidity,HourlyPrecipIn,Conditions,Clouds,dailyrainin,SoftwareType,DateUTC
2013-05-27 00:01:00,36.1,33.5,30.09,West,270,1.0,0.0,90,0.00,,CLR,-99.99,VWS V14.01,2013-05-27 04:01:00,
2013-05-27 00:03:00,35.9,33.3,30.09,West,270,1.0,0.0,90,0.00,,CLR,-99.99,VWS V14.01,2013-05-27 04:03:00,
2013-05-27 00:06:00,36.1,33.5,30.09,West,270,1.0,0.0,90,0.00,,CLR,-99.99,VWS V14.01,2013-05-27 04:06:00,
2013-05-27 00:07:00,35.9,33.3,30.09,West,270,1.0,0.0,90,0.00,,CLR,-99.99,VWS V14.01,2013-05-27 04:07:00,
2013-05-27 00:13:00,35.7,33.1,30.09,West,270,1.0,0.0,90,0.00,,CLR,-99.99,VWS V14.01,2013-05-27 04:13:00,
2013-05-27 00:19:00,35.7,33.3,30.09,West,270,1.0,0.0,91,0.00,,CLR,-99.99,VWS V14.01,2013-05-27 04:19:00,
2013-05-27 00:25:00,35.7,33.3,30.09,West,270,1.0,0.0,91,0.00,,CLR,-99.99,VWS V14.01,2013-05-27 04:25:00,
2013-05-27 00:31:00,35.6,33.2,30.09,West,270,1.0,0.0,91,0.00,,CLR,-99.99,VWS V14.01,2013-05-27 04:31:00,
2013-05-27 00:36:00,35.4,33.0,30.09,West,270,1.0,0.0,91,0.00,,CLR,-99.99,VWS V14.01,2013-05-27 04:36:00,
2013-05-27 00:41:00,35.4,33.0,30.09,West,270,1.0,0.0,91,0.00,,CLR,-99.99,VWS V14.01,2013-05-27 04:41:00,
2013-05-27 00:46:00,35.4,33.0,30.09,West,270,1.0,0.0,91,0.00,,CLR,-99.99,VWS V14.01,2013-05-27 04:46:00,
2013-05-27 00:51:00,35.2,32.8,30.08,West,270,1.0,0.0,91,0.00,,CLR,-99.99,VWS V14.01,2013-05-27 04:51:00,
2013-05-27 00:56:00,35.2,33.1,30.08,West,270,1.0,0.0,92,0.00,,CLR,-99.99,VWS V14.01,2013-05-27 04:56:00,
2013-05-27 01:01:00,35.2,33.1,30.08,West,270,1.0,0.0,92,0.00,,CLR,-99.99,VWS V14.01,2013-05-27 05:01:00,
2013-05-27 01:06:00,35.2,33.1,30.08,West,270,1.0,0.0,92,0.00,,CLR,-99.99,VWS V14.01,2013-05-27 05:06:00,
2013-05-27 01:11:00,35.2,33.1,30.08,West,270,1.0,0.0,92,0.00,,CLR,-99.99,VWS V14.01,2013-05-27 05:11:00,
2013-05-27 01:16:00,35.2,33.1,30.08,West,270,1.0,0.0,92,0.00,,CLR,-99.99,VWS V14.01,2013-05-27 05:16:00,
2013-05-27 01:21:00,35.2,33.1,30.08,West,270,1.0,0.0,92,0.00,,CLR,-99.99,VWS V14.01,2013-05-27 05:21:00,
2013-05-27 01:26:00,35.2,33.1,30.08,West,270,1.0,0.0,92,0.00,,CLR,-99.99,VWS V14.01,2013-05-27 05:26:00,
2013-05-27 01:31:00,35.2,33.1,30.08,West,270,1.0,0.0,92,0.00,,CLR,-99.99,VWS V14.01,2013-05-27 05:31:00,
2013-05-27 01:36:00,35.2,33.1,30.08,West,270,1.0,0.0,92,0.00,,CLR,-99.99,VWS V14.01,2013-05-27 05:36:00,
2013-05-27 01:42:00,35.2,33.1,30.08,West,270,1.0,0.0,92,0.00,,CLR,-99.99,VWS V14.01,2013-05-27 05:42:00,
2013-05-27 01:48:00,35.2,33.1,30.08,West,270,1.0,0.0,92,0.00,,CLR,-99.99,VWS V14.01,2013-05-27 05:48:00,
2013-05-27 01:54:00,35.0,32.9,30.07,West,270,1.0,0.0,92,0.00,,CLR,-99.99,VWS V14.01,2013-05-27 05:54:00,
2013-05-27 02:00:00,34.8,32.7,30.07,West,270,1.0,0.0,92,0.00,,CLR,-99.99,VWS V14.01,2013-05-27 06:00:00,
2013-05-27 02:06:00,34.8,32.7,30.07,West,270,1.0,0.0,92,0.00,,CLR,-99.99,VWS V14.01,2013-05-27 06:06:00,
2013-05-27 02:11:00,34.8,32.7,30.07,West,270,1.0,0.0,92,0.00,,CLR,-99.99,VWS V14.01,2013-05-27 06:11:00,
2013-05-27 02:16:00,35.2,33.1,30.07,West,270,1.0,0.0,92,0.00,,CLR,-99.99,VWS V14.01,2013-05-27 06:16:00,
2013-05-27 02:21:00,35.2,33.1,30.07,West,270,1.0,0.0,92,0.00,,CLR,-99.99,VWS V14.01,2013-05-27 06:21:00,
2013-05-27 02:26:00,35.2,33.1,30.07,West,270,1.0,0.0,92,0.00,,CLR,-99.99,VWS V14.01,2013-05-27 06:26:00,
2013-05-27 02:31:00,35.2,33.1,30.08,West,270,1.0,0.0,92,0.00,,CLR,-99.99,VWS V14.01,2013-05-27 06:31:00,
2013-05-27 02:36:00,35.2,33.1,30.07,West,270,1.0,0.0,92,0.00,,CLR,-99.99,VWS V14.01,2013-05-27 06:36:00,
2013-05-27 02:41:00,34.8,32.7,30.07,West,270,1.0,0.0,92,0.00,,CLR,-99.99,VWS V14.01,2013-05-27 06:41:00,
2013-05-27 02:46:00,34.8,32.7,30.07,West,270,1.0,0.0,92,0.00,,CLR,-99.99,VWS V14.01,2013-05-27 06:46:00,
2013-05-27 02:51:00,34.7,32.6,30.07,West,270,1.0,0.0,92,0.00,,CLR,-99.99,VWS V14.01,2013-05-27 06:51:00,
2013-05-27 02:56:00,34.7,32.6,30.07,West,270,1.0,0.0,92,0.00,,CLR,-99.99,VWS V14.01,2013-05-27 06:56:00,
2013-05-27 03:01:00,34.7,32.6,30.07,West,270,1.0,0.0,92,0.00,,CLR,-99.99,VWS V14.01,2013-05-27 07:01:00,
2013-05-27 03:06:00,34.7,32.6,30.07,West,270,1.0,0.0,92,0.00,,CLR,-99.99,VWS V14.01,2013-05-27 07:06:00,
2013-05-27 03:12:00,34.5,32.4,30.07,West,270,1.0,0.0,92,0.00,,CLR,-99.99,VWS V14.01,2013-05-27 07:12:00,
2013-05-27 03:18:00,34.3,32.2,30.07,West,270,1.0,0.0,92,0.00,,CLR,-99.99,VWS V14.01,2013-05-27 07:18:00,
2013-05-27 03:24:00,34.3,32.2,30.07,West,270,1.0,0.0,92,0.00,,CLR,-99.99,VWS V14.01,2013-05-27 07:24:00,
2013-05-27 03:30:00,34.3,32.2,30.07,West,270,1.0,0.0,92,0.00,,CLR,-99.99,VWS V14.01,2013-05-27 07:30:00,
2013-05-27 03:36:00,34.1,32.0,30.07,West,270,1.0,0.0,92,0.00,,CLR,-99.99,VWS V14.01,2013-05-27 07:36:00,
2013-05-27 03:42:00,33.9,31.8,30.08,West,270,1.0,0.0,92,0.00,,CLR,-99.99,VWS V14.01,2013-05-27 07:42:00,
2013-05-27 03:47:00,33.8,31.7,30.08,West,270,1.0,0.0,92,0.00,,CLR,-99.99,VWS V14.01,2013-05-27 07:47:00,
2013-05-27 03:53:00,33.8,31.7,30.08,West,270,1.0,0.0,92,0.00,,CLR,-99.99,VWS V14.01,2013-05-27 07:53:00,
2013-05-27 03:59:00,33.6,31.8,30.08,West,270,1.0,0.0,93,0.00,,CLR,-99.99,VWS V14.01,2013-05-27 07:59:00,
2013-05-27 04:05:00,33.6,31.8,30.08,West,270,1.0,0.0,93,0.00,,CLR,-99.99,VWS V14.01,2013-05-27 08:05:00,
2013-05-27 04:10:00,33.4,31.6,30.08,West,270,1.0,0.0,93,0.00,,CLR,-99.99,VWS V14.01,2013-05-27 08:10:00,
2013-05-27 04:15:00,33.4,31.6,30.08,West,270,1.0,0.0,93,0.00,,CLR,-99.99,VWS V14.01,2013-05-27 08:15:00,
2013-05-27 04:20:00,33.4,31.6,30.08,West,270,1.0,0.0,93,0.00,,CLR,-99.99,VWS V14.01,2013-05-27 08:20:00,
2013-05-27 04:25:00,33.4,31.6,30.09,West,270,1.0,0.0,93,0.00,,CLR,-99.99,VWS V14.01,2013-05-27 08:25:00,
2013-05-27 04:30:00,33.4,31.6,30.08,West,270,1.0,0.0,93,0.00,,CLR,-99.99,VWS V14.01,2013-05-27 08:30:00,
2013-05-27 04:35:00,33.6,31.8,30.09,West,270,1.0,0.0,93,0.00,,CLR,-99.99,VWS V14.01,2013-05-27 08:35:00,
2013-05-27 04:40:00,33.6,31.8,30.09,West,270,1.0,0.0,93,0.00,,CLR,-99.99,VWS V14.01,2013-05-27 08:40:00,
2013-05-27 04:45:00,33.6,31.8,30.09,West,270,1.0,0.0,93,0.00,,CLR,-99.99,VWS V14.01,2013-05-27 08:45:00,
2013-05-27 04:50:00,33.2,31.4,30.09,West,270,1.0,0.0,93,0.00,,CLR,-99.99,VWS V14.01,2013-05-27 08:50:00,
2013-05-27 04:55:00,33.0,31.2,30.10,West,270,1.0,0.0,93,0.00,,CLR,-99.99,VWS V14.01,2013-05-27 08:55:00,
2013-05-27 05:00:00,33.0,31.2,30.09,West,270,1.0,0.0,93,0.00,,CLR,-99.99,VWS V14.01,2013-05-27 09:00:00,
2013-05-27 05:06:00,32.9,31.1,30.09,West,270,1.0,0.0,93,0.00,,CLR,-99.99,VWS V14.01,2013-05-27 09:06:00,
2013-05-27 05:12:00,33.0,31.2,30.10,West,270,1.0,0.0,93,0.00,,CLR,-99.99,VWS V14.01,2013-05-27 09:12:00,
2013-05-27 05:18:00,32.9,31.1,30.10,West,270,1.0,0.0,93,0.00,,CLR,-99.99,VWS V14.01,2013-05-27 09:18:00,
2013-05-27 05:23:00,32.9,31.1,30.10,West,270,1.0,0.0,93,0.00,,CLR,-99.99,VWS V14.01,2013-05-27 09:23:00,
2013-05-27 05:29:00,33.0,31.2,30.10,West,270,1.0,0.0,93,0.00,,CLR,-99.99,VWS V14.01,2013-05-27 09:29:00,
2013-05-27 05:35:00,33.2,31.4,30.10,West,270,1.0,0.0,93,0.00,,CLR,-99.99,VWS V14.01,2013-05-27 09:35:00,
2013-05-27 05:40:00,33.6,31.8,30.11,West,270,1.0,0.0,93,0.00,,CLR,-99.99,VWS V14.01,2013-05-27 09:40:00,
2013-05-27 05:45:00,33.6,31.8,30.11,West,270,1.0,0.0,93,0.00,,CLR,-99.99,VWS V14.01,2013-05-27 09:45:00,
2013-05-27 05:50:00,34.1,32.3,30.11,West,270,1.0,0.0,93,0.00,,CLR,-99.99,VWS V14.01,2013-05-27 09:50:00,
2013-05-27 05:55:00,34.3,32.5,30.11,West,270,1.0,0.0,93,0.00,,CLR,-99.99,VWS V14.01,2013-05-27 09:55:00,
2013-05-27 06:00:00,34.8,33.2,30.11,West,270,1.0,0.0,94,0.00,,CLR,-99.99,VWS V14.01,2013-05-27 10:00:00,
2013-05-27 06:05:00,35.4,33.8,30.11,West,270,1.0,0.0,94,0.00,,CLR,-99.99,VWS V14.01,2013-05-27 10:05:00,
2013-05-27 06:11:00,35.7,34.2,30.12,West,270,1.0,0.0,94,0.00,,CLR,-99.99,VWS V14.01,2013-05-27 10:11:00,
2013-05-27 06:17:00,36.3,34.7,30.11,West,270,1.0,0.0,94,0.00,,CLR,-99.99,VWS V14.01,2013-05-27 10:17:00,
2013-05-27 06:23:00,37.0,35.4,30.12,West,270,1.0,0.0,94,0.00,,CLR,-99.99,VWS V14.01,2013-05-27 10:23:00,
2013-05-27 06:29:00,37.5,35.7,30.12,West,270,1.0,0.0,93,0.00,,CLR,-99.99,VWS V14.01,2013-05-27 10:29:00,
2013-05-27 06:35:00,38.1,36.3,30.13,West,270,1.0,0.0,93,0.00,,CLR,-99.99,VWS V14.01,2013-05-27 10:35:00,
2013-05-27 06:40:00,38.6,36.8,30.12,West,270,1.0,0.0,93,0.00,,CLR,-99.99,VWS V14.01,2013-05-27 10:40:00,
2013-05-27 06:45:00,39.0,37.2,30.12,West,270,1.0,0.0,93,0.00,,CLR,-99.99,VWS V14.01,2013-05-27 10:45:00,
2013-05-27 06:50:00,39.3,37.5,30.12,West,270,1.0,0.0,93,0.00,,CLR,-99.99,VWS V14.01,2013-05-27 10:50:00,
2013-05-27 06:55:00,39.7,37.8,30.13,West,270,1.0,0.0,93,0.00,,CLR,-99.99,VWS V14.01,2013-05-27 10:55:00,
2013-05-27 07:00:00,39.9,38.0,30.13,West,270,1.0,0.0,93,0.00,,CLR,-99.99,VWS V14.01,2013-05-27 11:00:00,
2013-05-27 07:05:00,40.4,38.3,30.13,West,270,1.0,0.0,92,0.00,,CLR,-99.99,VWS V14.01,2013-05-27 11:05:00,
2013-05-27 07:11:00,41.3,39.2,30.13,West,270,1.0,0.0,92,0.00,,CLR,-99.99,VWS V14.01,2013-05-27 11:11:00,
2013-05-27 07:17:00,41.7,39.5,30.14,West,270,1.0,0.0,92,0.00,,CLR,-99.99,VWS V14.01,2013-05-27 11:17:00,
2013-05-27 07:23:00,42.4,40.2,30.13,West,270,1.0,0.0,92,0.00,,CLR,-99.99,VWS V14.01,2013-05-27 11:23:00,
2013-05-27 07:29:00,43.5,41.0,30.13,West,270,1.0,0.0,91,0.00,,CLR,-99.99,VWS V14.01,2013-05-27 11:29:00,
2013-05-27 07:35:00,44.4,41.4,30.13,West,270,1.0,0.0,89,0.00,,CLR,-99.99,VWS V14.01,2013-05-27 11:35:00,
2013-05-27 07:40:00,44.9,41.6,30.13,West,270,1.0,0.0,88,0.00,,CLR,-99.99,VWS V14.01,2013-05-27 11:40:00,
2013-05-27 07:45:00,45.3,41.4,30.14,West,270,1.0,0.0,86,0.00,,CLR,-99.99,VWS V14.01,2013-05-27 11:45:00,
2013-05-27 07:50:00,46.2,42.2,30.14,West,270,1.0,0.0,86,0.00,,CLR,-99.99,VWS V14.01,2013-05-27 11:50:00,
2013-05-27 07:55:00,46.7,42.4,30.14,West,270,1.0,0.0,85,0.00,,CLR,-99.99,VWS V14.01,2013-05-27 11:55:00,
2013-05-27 08:00:00,47.6,43.0,30.14,West,270,1.0,0.0,84,0.00,,CLR,-99.99,VWS V14.01,2013-05-27 12:00:00,
2013-05-27 08:05:00,48.0,42.8,30.14,West,270,1.0,0.0,82,0.00,,CLR,-99.99,VWS V14.01,2013-05-27 12:05:00,
2013-05-27 08:11:00,48.7,42.5,30.14,West,270,1.0,0.0,79,0.00,,CLR,-99.99,VWS V14.01,2013-05-27 12:11:00,
2013-05-27 08:17:00,49.2,42.6,30.14,West,270,1.0,0.0,78,0.00,,CLR,-99.99,VWS V14.01,2013-05-27 12:17:00,
2013-05-27 08:23:00,49.6,42.4,30.14,West,270,1.0,0.0,76,0.00,,CLR,-99.99,VWS V14.01,2013-05-27 12:23:00,
2013-05-27 08:28:00,50.1,42.8,30.15,West,270,1.0,0.0,76,0.00,,CLR,-99.99,VWS V14.01,2013-05-27 12:28:00,
2013-05-27 08:34:00,50.7,41.7,30.15,West,270,1.0,0.0,71,0.00,,CLR,-99.99,VWS V14.01,2013-05-27 12:34:00,
2013-05-27 08:40:00,50.5,40.7,30.15,West,270,1.0,0.0,69,0.00,,CLR,-99.99,VWS V14.01,2013-05-27 12:40:00,
2013-05-27 08:45:00,50.9,41.1,30.15,West,270,1.0,0.0,69,0.00,,CLR,-99.99,VWS V14.01,2013-05-27 12:45:00,
2013-05-27 08:50:00,51.2,41.4,30.15,West,270,1.0,0.0,69,0.00,,CLR,-99.99,VWS V14.01,2013-05-27 12:50:00,
2013-05-27 08:55:00,51.4,40.8,30.15,West,270,1.0,0.0,67,0.00,,CLR,-99.99,VWS V14.01,2013-05-27 12:55:00,
2013-05-27 09:00:00,52.3,42.8,30.15,West,270,1.0,0.0,70,0.00,,CLR,-99.99,VWS V14.01,2013-05-27 13:00:00,
2013-05-27 09:05:00,52.5,41.5,30.15,West,270,1.0,0.0,66,0.00,,CLR,-99.99,VWS V14.01,2013-05-27 13:05:00,
2013-05-27 09:11:00,53.4,43.9,30.16,West,270,1.0,0.0,70,0.00,,CLR,-99.99,VWS V14.01,2013-05-27 13:11:00,
2013-05-27 09:17:00,54.1,44.5,30.16,West,270,1.0,0.0,70,0.00,,CLR,-99.99,VWS V14.01,2013-05-27 13:17:00,
2013-05-27 09:23:00,54.3,43.2,30.15,West,270,1.0,0.0,66,0.00,,CLR,-99.99,VWS V14.01,2013-05-27 13:23:00,
2013-05-27 09:29:00,54.6,42.7,30.16,West,270,1.0,0.0,64,0.00,,CLR,-99.99,VWS V14.01,2013-05-27 13:29:00,
2013-05-27 09:35:00,54.8,41.6,30.16,West,270,1.0,0.0,61,0.00,,CLR,-99.99,VWS V14.01,2013-05-27 13:35:00,
2013-05-27 09:40:00,54.6,41.4,30.15,West,270,1.0,0.0,61,0.00,,CLR,-99.99,VWS V14.01,2013-05-27 13:40:00,
2013-05-27 09:45:00,55.2,40.7,30.16,West,270,1.0,0.0,58,0.00,,CLR,-99.99,VWS V14.01,2013-05-27 13:45:00,
2013-05-27 09:50:00,55.0,40.5,30.16,West,270,1.0,0.0,58,0.00,,CLR,-99.99,VWS V14.01,2013-05-27 13:50:00,
2013-05-27 09:55:00,54.8,39.9,30.16,West,270,1.0,0.0,57,0.00,,CLR,-99.99,VWS V14.01,2013-05-27 13:55:00,
2013-05-27 10:00:00,55.0,39.2,30.16,West,270,1.0,0.0,55,0.00,,CLR,-99.99,VWS V14.01,2013-05-27 14:00:00,
2013-05-27 10:05:00,55.9,41.8,30.16,West,270,1.0,0.0,59,0.00,,CLR,-99.99,VWS V14.01,2013-05-27 14:05:00,
2013-05-27 10:11:00,56.1,40.6,30.16,West,270,1.0,0.0,56,0.00,,CLR,-99.99,VWS V14.01,2013-05-27 14:11:00,
2013-05-27 10:17:00,56.6,42.0,30.16,North,0,1.0,0.0,58,0.00,,CLR,-99.99,VWS V14.01,2013-05-27 14:17:00,
2013-05-27 10:23:00,56.4,39.5,30.16,North,0,1.0,0.0,53,0.00,,CLR,-99.99,VWS V14.01,2013-05-27 14:23:00,
2013-05-27 10:29:00,55.7,38.4,30.16,North,0,1.0,0.0,52,0.00,,CLR,-99.99,VWS V14.01,2013-05-27 14:29:00,
2013-05-27 10:35:00,57.0,41.5,30.16,North,0,1.0,0.0,56,0.00,,CLR,-99.99,VWS V14.01,2013-05-27 14:35:00,
2013-05-27 10:40:00,57.5,41.0,30.16,North,0,1.0,0.0,54,0.00,,CLR,-99.99,VWS V14.01,2013-05-27 14:40:00,
2013-05-27 10:45:00,57.0,38.0,30.17,North,0,1.0,0.0,49,0.00,,CLR,-99.99,VWS V14.01,2013-05-27 14:45:00,
2013-05-27 10:50:00,56.8,38.9,30.17,North,0,1.0,0.0,51,0.00,,CLR,-99.99,VWS V14.01,2013-05-27 14:50:00,
2013-05-27 10:55:00,57.3,39.3,30.16,North,0,1.0,0.0,51,0.00,,CLR,-99.99,VWS V14.01,2013-05-27 14:55:00,
2013-05-27 11:00:00,57.5,36.9,30.16,North,0,1.0,0.0,46,0.00,,CLR,-99.99,VWS V14.01,2013-05-27 15:00:00,
2013-05-27 11:05:00,57.7,38.7,30.16,North,0,1.0,0.0,49,0.00,,CLR,-99.99,VWS V14.01,2013-05-27 15:05:00,
2013-05-27 11:11:00,57.7,38.2,30.17,North,0,1.0,0.0,48,0.00,,CLR,-99.99,VWS V14.01,2013-05-27 15:11:00,
2013-05-27 11:17:00,57.9,37.3,30.16,North,0,1.0,0.0,46,0.00,,CLR,-99.99,VWS V14.01,2013-05-27 15:17:00,
2013-05-27 11:23:00,57.3,36.2,30.16,North,0,1.0,0.0,45,0.00,,CLR,-99.99,VWS V14.01,2013-05-27 15:23:00,
2013-05-27 11:29:00,57.9,37.3,30.17,North,0,1.0,0.0,46,0.00,,CLR,-99.99,VWS V14.01,2013-05-27 15:29:00,
2013-05-27 11:35:00,57.3,35.0,30.16,North,0,1.0,0.0,43,0.00,,CLR,-99.99,VWS V14.01,2013-05-27 15:35:00,
2013-05-27 11:40:00,58.2,37.5,30.16,North,0,1.0,0.0,46,0.00,,CLR,-99.99,VWS V14.01,2013-05-27 15:40:00,
2013-05-27 11:45:00,57.5,35.2,30.17,North,0,1.0,0.0,43,0.00,,CLR,-99.99,VWS V14.01,2013-05-27 15:45:00,
2013-05-27 11:50:00,57.3,35.6,30.17,North,0,1.0,0.0,44,0.00,,CLR,-99.99,VWS V14.01,2013-05-27 15:50:00,
2013-05-27 11:55:00,57.5,37.5,30.16,North,0,1.0,0.0,47,0.00,,CLR,-99.99,VWS V14.01,2013-05-27 15:55:00,
2013-05-27 12:00:00,57.9,36.7,30.16,North,0,1.0,0.0,45,0.00,,CLR,-99.99,VWS V14.01,2013-05-27 16:00:00,
2013-05-27 12:05:00,57.9,33.8,30.17,North,0,1.0,0.0,40,0.00,,CLR,-99.99,VWS V14.01,2013-05-27 16:05:00,
2013-05-27 12:11:00,58.2,37.0,30.17,North,0,1.0,0.0,45,0.00,,CLR,-99.99,VWS V14.01,2013-05-27 16:11:00,
2013-05-27 12:17:00,58.4,36.0,30.17,North,0,1.0,0.0,43,0.00,,CLR,-99.99,VWS V14.01,2013-05-27 16:17:00,
2013-05-27 12:23:00,59.3,39.1,30.17,North,0,1.0,0.0,47,0.00,,CLR,-99.99,VWS V14.01,2013-05-27 16:23:00,
2013-05-27 12:29:00,58.2,35.8,30.17,North,0,1.0,0.0,43,0.00,,CLR,-99.99,VWS V14.01,2013-05-27 16:29:00,
2013-05-27 12:35:00,58.8,37.5,30.17,North,0,1.0,0.0,45,0.00,,CLR,-99.99,VWS V14.01,2013-05-27 16:35:00,
2013-05-27 12:40:00,59.7,37.2,30.16,North,0,1.0,0.0,43,0.00,,CLR,-99.99,VWS V14.01,2013-05-27 16:40:00,
2013-05-27 12:45:00,58.8,36.4,30.16,North,0,1.0,0.0,43,0.00,,CLR,-99.99,VWS V14.01,2013-05-27 16:45:00,
2013-05-27 12:50:00,58.8,37.5,30.16,North,0,1.0,0.0,45,0.00,,CLR,-99.99,VWS V14.01,2013-05-27 16:50:00,
2013-05-27 12:55:00,59.5,37.6,30.16,North,0,1.0,0.0,44,0.00,,CLR,-99.99,VWS V14.01,2013-05-27 16:55:00,
2013-05-27 13:00:00,58.8,37.5,30.16,North,0,1.0,0.0,45,0.00,,CLR,-99.99,VWS V14.01,2013-05-27 17:00:00,
2013-05-27 13:05:00,58.8,37.5,30.16,North,0,1.0,0.0,45,0.00,,CLR,-99.99,VWS V14.01,2013-05-27 17:05:00,
2013-05-27 13:10:00,59.1,36.7,30.15,North,0,1.0,0.0,43,0.00,,CLR,-99.99,VWS V14.01,2013-05-27 17:10:00,
2013-05-27 13:15:00,58.8,37.5,30.15,North,0,1.0,0.0,45,0.00,,CLR,-99.99,VWS V14.01,2013-05-27 17:15:00,
2013-05-27 13:20:00,58.8,37.5,30.15,North,0,1.0,0.0,45,0.00,,CLR,-99.99,VWS V14.01,2013-05-27 17:20:00,
2013-05-27 13:25:00,60.4,41.2,30.15,North,0,1.0,0.0,49,0.00,,CLR,-99.99,VWS V14.01,2013-05-27 17:25:00,
2013-05-27 13:30:00,61.3,40.4,30.15,North,0,1.0,0.0,46,0.00,,CLR,-99.99,VWS V14.01,2013-05-27 17:30:00,
2013-05-27 13:35:00,61.1,40.2,30.15,North,0,1.0,0.0,46,0.00,,CLR,-99.99,VWS V14.01,2013-05-27 17:35:00,
2013-05-27 13:40:00,62.0,41.6,30.15,North,0,1.0,0.0,47,0.00,,CLR,-99.99,VWS V14.01,2013-05-27 17:40:00,
2013-05-27 13:45:00,61.1,40.2,30.15,North,0,1.0,0.0,46,0.00,,CLR,-99.99,VWS V14.01,2013-05-27 17:45:00,
2013-05-27 13:50:00,62.0,41.0,30.15,North,0,1.0,0.0,46,0.00,,CLR,-99.99,VWS V14.01,2013-05-27 17:50:00,
2013-05-27 13:55:00,61.7,39.0,30.14,North,0,1.0,0.0,43,0.00,,CLR,-99.99,VWS V14.01,2013-05-27 17:55:00,
2013-05-27 14:00:00,61.3,39.8,30.14,North,0,1.0,0.0,45,0.00,,CLR,-99.99,VWS V14.01,2013-05-27 18:00:00,
2013-05-27 14:05:00,62.2,42.3,30.14,North,0,1.0,0.0,48,0.00,,CLR,-99.99,VWS V14.01,2013-05-27 18:05:00,
2013-05-27 14:11:00,62.4,41.9,30.14,North,0,1.0,0.0,47,0.00,,CLR,-99.99,VWS V14.01,2013-05-27 18:11:00,
2013-05-27 14:17:00,61.8,37.9,30.15,North,0,1.0,0.0,41,0.00,,CLR,-99.99,VWS V14.01,2013-05-27 18:17:00,
2013-05-27 14:23:00,61.7,39.6,30.14,North,0,1.0,0.0,44,0.00,,CLR,-99.99,VWS V14.01,2013-05-27 18:23:00,
2013-05-27 14:29:00,62.0,38.7,30.14,North,0,1.0,0.0,42,0.00,,CLR,-99.99,VWS V14.01,2013-05-27 18:29:00,
2013-05-27 14:35:00,62.2,40.0,30.15,North,0,1.0,0.0,44,0.00,,CLR,-99.99,VWS V14.01,2013-05-27 18:35:00,
2013-05-27 14:40:00,63.3,41.6,30.14,North,0,1.0,0.0,45,0.00,,CLR,-99.99,VWS V14.01,2013-05-27 18:40:00,
2013-05-27 14:45:00,63.5,40.0,30.14,North,0,1.0,0.0,42,0.00,,CLR,-99.99,VWS V14.01,2013-05-27 18:45:00,
2013-05-27 14:50:00,64.0,42.3,30.14,North,0,1.0,0.0,45,0.00,,CLR,-99.99,VWS V14.01,2013-05-27 18:50:00,
2013-05-27 14:56:00,63.6,38.9,30.15,North,0,1.0,0.0,40,0.00,,CLR,-99.99,VWS V14.01,2013-05-27 18:56:00,
2013-05-27 15:01:00,62.9,38.9,30.14,North,0,1.0,0.0,41,0.00,,CLR,-99.99,VWS V14.01,2013-05-27 19:01:00,
2013-05-27 15:07:00,63.3,40.5,30.15,North,0,1.0,0.0,43,0.00,,CLR,-99.99,VWS V14.01,2013-05-27 19:07:00,
2013-05-27 15:13:00,63.6,39.5,30.15,North,0,1.0,0.0,41,0.00,,CLR,-99.99,VWS V14.01,2013-05-27 19:13:00,
2013-05-27 15:19:00,62.9,37.6,30.15,North,0,1.0,0.0,39,0.00,,CLR,-99.99,VWS V14.01,2013-05-27 19:19:00,
2013-05-27 15:25:00,62.7,39.9,30.15,North,0,1.0,0.0,43,0.00,,CLR,-99.99,VWS V14.01,2013-05-27 19:25:00,
2013-05-27 15:30:00,63.5,41.2,30.15,North,0,1.0,0.0,44,0.00,,CLR,-99.99,VWS V14.01,2013-05-27 19:30:00,
2013-05-27 15:35:00,63.3,39.8,30.15,North,0,1.0,0.0,42,0.00,,CLR,-99.99,VWS V14.01,2013-05-27 19:35:00,
2013-05-27 15:40:00,62.2,37.6,30.15,North,0,1.0,0.0,40,0.00,,CLR,-99.99,VWS V14.01,2013-05-27 19:40:00,
2013-05-27 15:45:00,61.8,37.9,30.15,North,0,1.0,0.0,41,0.00,,CLR,-99.99,VWS V14.01,2013-05-27 19:45:00,
2013-05-27 15:50:00,62.2,38.8,30.15,North,0,1.0,0.0,42,0.00,,CLR,-99.99,VWS V14.01,2013-05-27 19:50:00,
2013-05-27 15:55:00,62.4,37.8,30.16,North,0,1.0,0.0,40,0.00,,CLR,-99.99,VWS V14.01,2013-05-27 19:55:00,
2013-05-27 16:00:00,62.9,41.3,30.15,North,0,1.0,0.0,45,0.00,,CLR,-99.99,VWS V14.01,2013-05-27 20:00:00,
2013-05-27 16:05:00,63.3,39.2,30.15,North,0,1.0,0.0,41,0.00,,CLR,-99.99,VWS V14.01,2013-05-27 20:05:00,
2013-05-27 16:10:00,62.4,39.0,30.16,North,0,1.0,0.0,42,0.00,,CLR,-99.99,VWS V14.01,2013-05-27 20:10:00,
2013-05-27 16:15:00,61.8,37.9,30.16,North,0,1.0,0.0,41,0.00,,CLR,-99.99,VWS V14.01,2013-05-27 20:15:00,
2013-05-27 16:20:00,62.0,39.3,30.15,North,0,1.0,0.0,43,0.00,,CLR,-99.99,VWS V14.01,2013-05-27 20:20:00,
2013-05-27 16:25:00,62.2,40.0,30.16,North,0,1.0,0.0,44,0.00,,CLR,-99.99,VWS V14.01,2013-05-27 20:25:00,
2013-05-27 16:30:00,61.8,37.2,30.16,North,0,1.0,0.0,40,0.00,,CLR,-99.99,VWS V14.01,2013-05-27 20:30:00,
2013-05-27 16:35:00,61.8,38.5,30.16,North,0,1.0,0.0,42,0.00,,CLR,-99.99,VWS V14.01,2013-05-27 20:35:00,
2013-05-27 16:40:00,61.7,39.0,30.16,North,0,1.0,0.0,43,0.00,,CLR,-99.99,VWS V14.01,2013-05-27 20:40:00,
2013-05-27 16:45:00,61.3,36.2,30.16,North,0,1.0,0.0,39,0.00,,CLR,-99.99,VWS V14.01,2013-05-27 20:45:00,
2013-05-27 16:50:00,60.9,35.8,30.16,North,0,1.0,0.0,39,0.00,,CLR,-99.99,VWS V14.01,2013-05-27 20:50:00,
2013-05-27 16:55:00,60.9,37.7,30.16,North,0,1.0,0.0,42,0.00,,CLR,-99.99,VWS V14.01,2013-05-27 20:55:00,
2013-05-27 17:00:00,60.6,37.4,30.15,North,0,1.0,0.0,42,0.00,,CLR,-99.99,VWS V14.01,2013-05-27 21:00:00,
2013-05-27 17:05:00,60.9,37.7,30.16,North,0,1.0,0.0,42,0.00,,CLR,-99.99,VWS V14.01,2013-05-27 21:05:00,
2013-05-27 17:10:00,60.9,36.4,30.16,North,0,1.0,0.0,40,0.00,,CLR,-99.99,VWS V14.01,2013-05-27 21:10:00,
2013-05-27 17:15:00,60.4,36.6,30.16,North,0,1.0,0.0,41,0.00,,CLR,-99.99,VWS V14.01,2013-05-27 21:15:00,
2013-05-27 17:20:00,60.0,37.5,30.16,North,0,1.0,0.0,43,0.00,,CLR,-99.99,VWS V14.01,2013-05-27 21:20:00,
2013-05-27 17:25:00,60.0,36.2,30.16,North,0,1.0,0.0,41,0.00,,CLR,-99.99,VWS V14.01,2013-05-27 21:25:00,
2013-05-27 17:30:00,59.9,36.2,30.16,North,0,1.0,0.0,41,0.00,,CLR,-99.99,VWS V14.01,2013-05-27 21:30:00,
2013-05-27 17:35:00,60.0,37.5,30.16,North,0,1.0,0.0,43,0.00,,CLR,-99.99,VWS V14.01,2013-05-27 21:35:00,
2013-05-27 17:40:00,60.0,36.2,30.16,North,0,1.0,0.0,41,0.00,,CLR,-99.99,VWS V14.01,2013-05-27 21:40:00,
2013-05-27 17:45:00,59.5,36.4,30.16,North,0,1.0,0.0,42,0.00,,CLR,-99.99,VWS V14.01,2013-05-27 21:45:00,
2013-05-27 17:50:00,58.8,36.4,30.16,North,0,1.0,0.0,43,0.00,,CLR,-99.99,VWS V14.01,2013-05-27 21:50:00,
2013-05-27 17:55:00,59.3,36.8,30.16,North,0,1.0,0.0,43,0.00,,CLR,-99.99,VWS V14.01,2013-05-27 21:55:00,
2013-05-27 18:00:00,59.5,38.2,30.16,North,0,1.0,0.0,45,0.00,,CLR,-99.99,VWS V14.01,2013-05-27 22:00:00,
2013-05-27 18:05:00,59.3,36.8,30.17,North,0,1.0,0.0,43,0.00,,CLR,-99.99,VWS V14.01,2013-05-27 22:05:00,
2013-05-27 18:10:00,58.8,36.4,30.16,North,0,1.0,0.0,43,0.00,,CLR,-99.99,VWS V14.01,2013-05-27 22:10:00,
2013-05-27 18:15:00,58.8,37.5,30.16,North,0,1.0,0.0,45,0.00,,CLR,-99.99,VWS V14.01,2013-05-27 22:15:00,
2013-05-27 18:20:00,58.8,37.5,30.16,North,0,1.0,0.0,45,0.00,,CLR,-99.99,VWS V14.01,2013-05-27 22:20:00,
2013-05-27 18:25:00,58.8,37.0,30.17,North,0,1.0,0.0,44,0.00,,CLR,-99.99,VWS V14.01,2013-05-27 22:25:00,
2013-05-27 18:30:00,58.8,37.0,30.16,North,0,1.0,0.0,44,0.00,,CLR,-99.99,VWS V14.01,2013-05-27 22:30:00,
2013-05-27 18:35:00,58.6,37.9,30.16,North,0,1.0,0.0,46,0.00,,CLR,-99.99,VWS V14.01,2013-05-27 22:35:00,
2013-05-27 18:40:00,58.6,37.3,30.17,North,0,1.0,0.0,45,0.00,,CLR,-99.99,VWS V14.01,2013-05-27 22:40:00,
2013-05-27 18:45:00,58.2,36.4,30.16,North,0,1.0,0.0,44,0.00,,CLR,-99.99,VWS V14.01,2013-05-27 22:45:00,
2013-05-27 18:50:00,58.1,36.3,30.16,North,0,1.0,0.0,44,0.00,,CLR,-99.99,VWS V14.01,2013-05-27 22:50:00,
2013-05-27 18:55:00,58.1,36.9,30.16,North,0,1.0,0.0,45,0.00,,CLR,-99.99,VWS V14.01,2013-05-27 22:55:00,
2013-05-27 19:00:00,57.9,37.3,30.17,North,0,1.0,0.0,46,0.00,,CLR,-99.99,VWS V14.01,2013-05-27 23:00:00,
2013-05-27 19:05:00,57.9,37.3,30.17,North,0,1.0,0.0,46,0.00,,CLR,-99.99,VWS V14.01,2013-05-27 23:05:00,
2013-05-27 19:11:00,57.3,37.8,30.17,North,0,1.0,0.0,48,0.00,,CLR,-99.99,VWS V14.01,2013-05-27 23:11:00,
2013-05-27 19:17:00,56.8,37.3,30.17,North,0,1.0,0.0,48,0.00,,CLR,-99.99,VWS V14.01,2013-05-27 23:17:00,
2013-05-27 19:22:00,56.8,38.4,30.17,North,0,1.0,0.0,50,0.00,,CLR,-99.99,VWS V14.01,2013-05-27 23:22:00,
2013-05-27 19:28:00,56.1,38.2,30.17,North,0,1.0,0.0,51,0.00,,CLR,-99.99,VWS V14.01,2013-05-27 23:28:00,
2013-05-27 19:34:00,55.7,38.4,30.18,North,0,1.0,0.0,52,0.00,,CLR,-99.99,VWS V14.01,2013-05-27 23:34:00,
2013-05-27 19:39:00,55.2,37.9,30.18,North,0,1.0,0.0,52,0.00,,CLR,-99.99,VWS V14.01,2013-05-27 23:39:00,
2013-05-27 19:45:00,55.0,38.2,30.18,North,0,1.0,0.0,53,0.00,,CLR,-99.99,VWS V14.01,2013-05-27 23:45:00,
2013-05-27 19:50:00,54.6,37.8,30.17,North,0,1.0,0.0,53,0.00,,CLR,-99.99,VWS V14.01,2013-05-27 23:50:00,
2013-05-27 19:55:00,54.3,38.0,30.18,North,0,1.0,0.0,54,0.00,,CLR,-99.99,VWS V14.01,2013-05-27 23:55:00,
2013-05-27 20:00:00,53.9,38.6,30.18,North,0,1.0,0.0,56,0.00,,CLR,-99.99,VWS V14.01,2013-05-28 00:00:00,
2013-05-27 20:06:00,53.4,38.6,30.18,North,0,1.0,0.0,57,0.00,,CLR,-99.99,VWS V14.01,2013-05-28 00:06:00,
2013-05-27 20:12:00,52.3,38.4,30.17,North,0,1.0,0.0,59,0.00,,CLR,-99.99,VWS V14.01,2013-05-28 00:12:00,
2013-05-27 20:17:00,51.6,39.0,30.18,North,0,1.0,0.0,62,0.00,,CLR,-99.99,VWS V14.01,2013-05-28 00:17:00,
2013-05-27 20:23:00,50.9,39.6,30.18,North,0,1.0,0.0,65,0.00,,CLR,-99.99,VWS V14.01,2013-05-28 00:23:00,
2013-05-27 20:29:00,50.3,39.8,30.18,North,0,1.0,0.0,67,0.00,,CLR,-99.99,VWS V14.01,2013-05-28 00:29:00,
2013-05-27 20:35:00,49.8,39.7,30.18,North,0,1.0,0.0,68,0.00,,CLR,-99.99,VWS V14.01,2013-05-28 00:35:00,
2013-05-27 20:40:00,49.2,39.5,30.18,North,0,1.0,0.0,69,0.00,,CLR,-99.99,VWS V14.01,2013-05-28 00:40:00,
2013-05-27 20:45:00,49.1,39.8,30.18,North,0,1.0,0.0,70,0.00,,CLR,-99.99,VWS V14.01,2013-05-28 00:45:00,
2013-05-27 20:50:00,48.7,39.4,30.18,North,0,1.0,0.0,70,0.00,,CLR,-99.99,VWS V14.01,2013-05-28 00:50:00,
2013-05-27 20:55:00,48.0,39.1,30.18,North,0,1.0,0.0,71,0.00,,CLR,-99.99,VWS V14.01,2013-05-28 00:55:00,
2013-05-27 21:00:00,47.4,38.5,30.18,North,0,1.0,0.0,71,0.00,,CLR,-99.99,VWS V14.01,2013-05-28 01:00:00,
2013-05-27 21:05:00,47.1,38.5,30.18,North,0,1.0,0.0,72,0.00,,CLR,-99.99,VWS V14.01,2013-05-28 01:05:00,
2013-05-27 21:11:00,46.9,38.7,30.18,North,0,1.0,0.0,73,0.00,,CLR,-99.99,VWS V14.01,2013-05-28 01:11:00,
2013-05-27 21:17:00,46.7,38.5,30.18,North,0,1.0,0.0,73,0.00,,CLR,-99.99,VWS V14.01,2013-05-28 01:17:00,
2013-05-27 21:23:00,46.5,38.7,30.18,North,0,1.0,0.0,74,0.00,,CLR,-99.99,VWS V14.01,2013-05-28 01:23:00,
2013-05-27 21:29:00,46.2,38.4,30.19,North,0,1.0,0.0,74,0.00,,CLR,-99.99,VWS V14.01,2013-05-28 01:29:00,
2013-05-27 21:35:00,45.6,38.5,30.18,North,0,1.0,0.0,76,0.00,,CLR,-99.99,VWS V14.01,2013-05-28 01:35:00,
2013-05-27 21:40:00,45.3,38.2,30.19,North,0,1.0,0.0,76,0.00,,CLR,-99.99,VWS V14.01,2013-05-28 01:40:00,
2013-05-27 21:45:00,45.1,38.3,30.19,North,0,1.0,0.0,77,0.00,,CLR,-99.99,VWS V14.01,2013-05-28 01:45:00,
2013-05-27 21:50:00,44.9,38.1,30.19,North,0,1.0,0.0,77,0.00,,CLR,-99.99,VWS V14.01,2013-05-28 01:50:00,
2013-05-27 21:55:00,44.7,37.9,30.19,North,0,1.0,0.0,77,0.00,,CLR,-99.99,VWS V14.01,2013-05-28 01:55:00,
2013-05-27 22:00:00,44.4,37.7,30.19,North,0,1.0,0.0,77,0.00,,CLR,-99.99,VWS V14.01,2013-05-28 02:00:00,
2013-05-27 22:05:00,44.2,37.8,30.19,North,0,1.0,0.0,78,0.00,,CLR,-99.99,VWS V14.01,2013-05-28 02:05:00,
2013-05-27 22:11:00,43.8,37.4,30.19,North,0,1.0,0.0,78,0.00,,CLR,-99.99,VWS V14.01,2013-05-28 02:11:00,
2013-05-27 22:17:00,43.5,37.1,30.19,North,0,1.0,0.0,78,0.00,,CLR,-99.99,VWS V14.01,2013-05-28 02:17:00,
2013-05-27 22:23:00,43.3,37.2,30.20,North,0,1.0,0.0,79,0.00,,CLR,-99.99,VWS V14.01,2013-05-28 02:23:00,
2013-05-27 22:29:00,43.3,37.2,30.19,North,0,1.0,0.0,79,0.00,,CLR,-99.99,VWS V14.01,2013-05-28 02:29:00,
2013-05-27 22:35:00,42.9,37.2,30.20,North,0,1.0,0.0,80,0.00,,CLR,-99.99,VWS V14.01,2013-05-28 02:35:00,
2013-05-27 22:40:00,42.6,36.9,30.20,North,0,1.0,0.0,80,0.00,,CLR,-99.99,VWS V14.01,2013-05-28 02:40:00,
2013-05-27 22:45:00,42.6,37.2,30.20,North,0,1.0,0.0,81,0.00,,CLR,-99.99,VWS V14.01,2013-05-28 02:45:00,
2013-05-27 22:50:00,42.4,37.0,30.20,North,0,1.0,0.0,81,0.00,,CLR,-99.99,VWS V14.01,2013-05-28 02:50:00,
2013-05-27 22:55:00,42.4,37.0,30.20,North,0,1.0,0.0,81,0.00,,CLR,-99.99,VWS V14.01,2013-05-28 02:55:00,
2013-05-27 23:00:00,42.2,36.8,30.21,North,0,1.0,0.0,81,0.00,,CLR,-99.99,VWS V14.01,2013-05-28 03:00:00,
2013-05-27 23:05:00,42.0,36.6,30.21,North,0,1.0,0.0,81,0.00,,CLR,-99.99,VWS V14.01,2013-05-28 03:05:00,
2013-05-27 23:10:00,42.0,36.9,30.21,North,0,1.0,0.0,82,0.00,,CLR,-99.99,VWS V14.01,2013-05-28 03:10:00,
2013-05-27 23:15:00,41.9,36.8,30.21,North,0,1.0,0.0,82,0.00,,CLR,-99.99,VWS V14.01,2013-05-28 03:15:00,
2013-05-27 23:20:00,41.7,36.6,30.21,North,0,1.0,0.0,82,0.00,,CLR,-99.99,VWS V14.01,2013-05-28 03:20:00,
2013-05-27 23:25:00,41.7,36.6,30.21,North,0,1.0,0.0,82,0.00,,CLR,-99.99,VWS V14.01,2013-05-28 03:25:00,
2013-05-27 23:30:00,41.5,36.7,30.21,North,0,1.0,0.0,83,0.00,,CLR,-99.99,VWS V14.01,2013-05-28 03:30:00,
2013-05-27 23:36:00,41.7,37.2,30.22,North,0,1.0,0.0,84,0.00,,CLR,-99.99,VWS V14.01,2013-05-28 03:36:00,
2013-05-27 23:42:00,41.5,37.0,30.21,North,0,1.0,0.0,84,0.00,,CLR,-99.99,VWS V14.01,2013-05-28 03:42:00,
2013-05-27 23:48:00,41.3,36.8,30.22,North,0,1.0,0.0,84,0.00,,CLR,-99.99,VWS V14.01,2013-05-28 03:48:00,
2013-05-27 23:54:00,41.3,36.8,30.22,North,0,1.0,0.0,84,0.00,,CLR,-99.99,VWS V14.01,2013-05-28 03:54:00,